sensor_id;sensor_type;location;lat;lon;timestamp;pressure;altitude;pressure_sealevel;temperature;humidity
49065;BME280;34877;27.062;-82.386;2022-11-20T00:06:28;102141.93;;;15.47;81.32
49065;BME280;34877;27.062;-82.386;2022-11-20T00:16:32;102148.02;;;15.52;81.65
49065;BME280;34877;27.062;-82.386;2022-11-20T00:26:37;102153.58;;;15.05;81.40
49065;BME280;34877;27.062;-82.386;2022-11-20T00:36:42;102157.28;;;15.34;81.66
49065;BME280;34877;27.062;-82.386;2022-11-20T00:46:46;102165.04;;;15.40;82.35
49065;BME280;34877;27.062;-82.386;2022-11-20T00:56:53;102173.96;;;15.27;81.38
49065;BME280;34877;27.062;-82.386;2022-11-20T01:06:56;102165.50;;;14.89;80.01
49065;BME280;34877;27.062;-82.386;2022-11-20T01:17:03;102188.62;;;14.95;80.25
49065;BME280;34877;27.062;-82.386;2022-11-20T01:27:07;102198.18;;;15.35;80.97
49065;BME280;34877;27.062;-82.386;2022-11-20T01:37:12;102203.73;;;14.96;80.16
49065;BME280;34877;27.062;-82.386;2022-11-20T01:47:20;102205.89;;;15.15;80.16
49065;BME280;34877;27.062;-82.386;2022-11-20T01:57:29;102190.06;;;14.53;81.36
49065;BME280;34877;27.062;-82.386;2022-11-20T02:07:37;102186.78;;;14.36;80.82
49065;BME280;34877;27.062;-82.386;2022-11-20T02:17:42;102191.27;;;14.91;80.88
49065;BME280;34877;27.062;-82.386;2022-11-20T02:27:47;102207.40;;;15.01;80.58
49065;BME280;34877;27.062;-82.386;2022-11-20T02:37:54;102228.88;;;14.78;80.94
49065;BME280;34877;27.062;-82.386;2022-11-20T02:48:02;102231.23;;;14.65;81.52
49065;BME280;34877;27.062;-82.386;2022-11-20T02:58:07;102233.28;;;14.57;82.04
49065;BME280;34877;27.062;-82.386;2022-11-20T03:08:12;102227.61;;;15.00;82.29
49065;BME280;34877;27.062;-82.386;2022-11-20T03:18:17;102237.36;;;14.88;84.09
49065;BME280;34877;27.062;-82.386;2022-11-20T03:28:22;102232.94;;;14.77;84.54
49065;BME280;34877;27.062;-82.386;2022-11-20T03:38:29;102224.86;;;14.81;84.62
49065;BME280;34877;27.062;-82.386;2022-11-20T03:48:32;102220.40;;;14.56;84.83
49065;BME280;34877;27.062;-82.386;2022-11-20T03:58:37;102197.54;;;14.78;85.26
49065;BME280;34877;27.062;-82.386;2022-11-20T04:08:43;102189.68;;;14.15;84.55
49065;BME280;34877;27.062;-82.386;2022-11-20T04:18:47;102179.02;;;14.19;84.57
49065;BME280;34877;27.062;-82.386;2022-11-20T04:28:51;102181.29;;;14.40;84.08
49065;BME280;34877;27.062;-82.386;2022-11-20T04:38:59;102177.43;;;14.29;83.61
49065;BME280;34877;27.062;-82.386;2022-11-20T04:49:03;102181.59;;;15.06;83.73
49065;BME280;34877;27.062;-82.386;2022-11-20T04:59:06;102171.03;;;14.30;84.15
49065;BME280;34877;27.062;-82.386;2022-11-20T05:09:12;102180.23;;;14.19;84.45
49065;BME280;34877;27.062;-82.386;2022-11-20T05:19:16;102162.79;;;14.41;84.38
49065;BME280;34877;27.062;-82.386;2022-11-20T05:29:22;102140.87;;;14.22;84.86
49065;BME280;34877;27.062;-82.386;2022-11-20T05:39:27;102132.81;;;14.54;84.31
49065;BME280;34877;27.062;-82.386;2022-11-20T05:49:32;102117.33;;;14.61;83.60
49065;BME280;34877;27.062;-82.386;2022-11-20T05:59:37;102118.75;;;13.82;84.00
49065;BME280;34877;27.062;-82.386;2022-11-20T06:09:42;102145.63;;;14.13;84.28
49065;BME280;34877;27.062;-82.386;2022-11-20T06:19:47;102124.19;;;14.17;83.70
49065;BME280;34877;27.062;-82.386;2022-11-20T06:29:51;102147.01;;;14.08;83.50
49065;BME280;34877;27.062;-82.386;2022-11-20T06:39:57;102135.17;;;14.39;82.76
49065;BME280;34877;27.062;-82.386;2022-11-20T06:50:02;102123.60;;;14.21;82.75
49065;BME280;34877;27.062;-82.386;2022-11-20T07:00:09;102127.12;;;14.40;82.48
49065;BME280;34877;27.062;-82.386;2022-11-20T07:10:13;102119.75;;;13.97;82.81
49065;BME280;34877;27.062;-82.386;2022-11-20T07:20:17;102093.43;;;13.64;83.06
49065;BME280;34877;27.062;-82.386;2022-11-20T07:30:22;102083.96;;;14.19;82.11
49065;BME280;34877;27.062;-82.386;2022-11-20T07:40:27;102058.41;;;14.04;81.88
49065;BME280;34877;27.062;-82.386;2022-11-20T07:50:32;102050.43;;;13.67;81.31
49065;BME280;34877;27.062;-82.386;2022-11-20T08:00:37;102031.21;;;13.87;81.02
49065;BME280;34877;27.062;-82.386;2022-11-20T08:10:42;102051.90;;;13.87;82.09
49065;BME280;34877;27.062;-82.386;2022-11-20T08:20:47;102075.20;;;13.71;82.99
49065;BME280;34877;27.062;-82.386;2022-11-20T08:30:58;102070.44;;;13.89;82.99
49065;BME280;34877;27.062;-82.386;2022-11-20T08:41:03;102050.91;;;13.62;82.80
49065;BME280;34877;27.062;-82.386;2022-11-20T08:51:07;102052.07;;;13.76;82.20
49065;BME280;34877;27.062;-82.386;2022-11-20T09:01:12;102073.93;;;13.89;81.75
49065;BME280;34877;27.062;-82.386;2022-11-20T09:11:16;102076.76;;;13.51;81.84
49065;BME280;34877;27.062;-82.386;2022-11-20T09:21:22;102096.62;;;13.50;81.48
49065;BME280;34877;27.062;-82.386;2022-11-20T09:31:27;102081.65;;;13.70;80.90
49065;BME280;34877;27.062;-82.386;2022-11-20T09:42:19;102061.28;;;13.20;81.16
49065;BME280;34877;27.062;-82.386;2022-11-20T09:52:37;102057.98;;;13.92;80.36
49065;BME280;34877;27.062;-82.386;2022-11-20T10:02:52;102058.15;;;13.14;78.05
49065;BME280;34877;27.062;-82.386;2022-11-20T10:13:09;102060.98;;;12.93;76.68
49065;BME280;34877;27.062;-82.386;2022-11-20T10:23:35;102062.95;;;13.05;76.89
49065;BME280;34877;27.062;-82.386;2022-11-20T10:33:47;102074.40;;;13.39;78.47
49065;BME280;34877;27.062;-82.386;2022-11-20T10:43:56;102070.70;;;13.17;79.59
49065;BME280;34877;27.062;-82.386;2022-11-20T10:54:12;102072.44;;;13.56;79.18
49065;BME280;34877;27.062;-82.386;2022-11-20T11:04:37;102081.28;;;13.29;79.19
49065;BME280;34877;27.062;-82.386;2022-11-20T11:14:45;102089.13;;;13.19;79.55
49065;BME280;34877;27.062;-82.386;2022-11-20T11:24:53;102106.63;;;13.61;77.64
49065;BME280;34877;27.062;-82.386;2022-11-20T11:35:02;102111.08;;;13.50;77.94
49065;BME280;34877;27.062;-82.386;2022-11-20T11:45:11;102132.30;;;13.33;78.19
49065;BME280;34877;27.062;-82.386;2022-11-20T11:55:24;102140.38;;;13.23;78.54
49065;BME280;34877;27.062;-82.386;2022-11-20T12:05:37;102152.82;;;13.29;78.15
49065;BME280;34877;27.062;-82.386;2022-11-20T12:15:45;102174.06;;;13.32;79.00
49065;BME280;34877;27.062;-82.386;2022-11-20T12:25:56;102179.54;;;13.17;78.77
49065;BME280;34877;27.062;-82.386;2022-11-20T12:36:15;102204.47;;;13.49;78.14
49065;BME280;34877;27.062;-82.386;2022-11-20T12:46:29;102210.42;;;13.43;79.02
49065;BME280;34877;27.062;-82.386;2022-11-20T12:56:46;102238.78;;;13.00;79.82
49065;BME280;34877;27.062;-82.386;2022-11-20T13:06:57;102270.66;;;13.25;80.24
49065;BME280;34877;27.062;-82.386;2022-11-20T13:17:08;102284.34;;;13.20;78.56
49065;BME280;34877;27.062;-82.386;2022-11-20T13:27:20;102264.20;;;12.53;80.38
49065;BME280;34877;27.062;-82.386;2022-11-20T13:37:31;102277.97;;;12.66;78.87
49065;BME280;34877;27.062;-82.386;2022-11-20T13:47:36;102290.74;;;12.80;79.03
49065;BME280;34877;27.062;-82.386;2022-11-20T13:57:54;102306.42;;;13.17;79.57
49065;BME280;34877;27.062;-82.386;2022-11-20T14:08:04;102297.17;;;12.97;78.95
49065;BME280;34877;27.062;-82.386;2022-11-20T14:18:14;102256.26;;;13.27;77.46
49065;BME280;34877;27.062;-82.386;2022-11-20T14:28:25;102237.95;;;12.73;77.65
49065;BME280;34877;27.062;-82.386;2022-11-20T14:38:32;102223.09;;;12.83;84.70
49065;BME280;34877;27.062;-82.386;2022-11-20T14:48:40;102230.20;;;13.09;85.62
49065;BME280;34877;27.062;-82.386;2022-11-20T14:58:56;102252.38;;;13.11;85.64
49065;BME280;34877;27.062;-82.386;2022-11-20T15:09:03;102249.50;;;13.11;91.80
49065;BME280;34877;27.062;-82.386;2022-11-20T15:19:17;102241.47;;;13.26;90.08
49065;BME280;34877;27.062;-82.386;2022-11-20T15:29:23;102241.68;;;12.96;93.77
49065;BME280;34877;27.062;-82.386;2022-11-20T15:39:27;102251.90;;;13.06;96.69
49065;BME280;34877;27.062;-82.386;2022-11-20T15:49:32;102233.26;;;12.99;100.00
49065;BME280;34877;27.062;-82.386;2022-11-20T15:59:38;102238.34;;;12.95;99.96
49065;BME280;34877;27.062;-82.386;2022-11-20T16:09:42;102229.27;;;13.16;94.44
49065;BME280;34877;27.062;-82.386;2022-11-20T16:19:47;102231.03;;;13.40;93.41
49065;BME280;34877;27.062;-82.386;2022-11-20T16:29:53;102218.80;;;13.76;91.13
49065;BME280;34877;27.062;-82.386;2022-11-20T16:39:57;102220.27;;;14.10;89.36
49065;BME280;34877;27.062;-82.386;2022-11-20T16:50:03;102223.11;;;13.89;88.68
49065;BME280;34877;27.062;-82.386;2022-11-20T17:00:09;102227.15;;;14.04;87.16
49065;BME280;34877;27.062;-82.386;2022-11-20T17:10:12;102206.11;;;13.70;86.19
49065;BME280;34877;27.062;-82.386;2022-11-20T17:20:17;102207.19;;;13.97;85.39
49065;BME280;34877;27.062;-82.386;2022-11-20T17:30:22;102201.77;;;14.56;85.66
49065;BME280;34877;27.062;-82.386;2022-11-20T17:40:27;102185.28;;;14.20;90.76
49065;BME280;34877;27.062;-82.386;2022-11-20T17:50:32;102154.01;;;14.01;91.64
49065;BME280;34877;27.062;-82.386;2022-11-20T18:00:37;102117.74;;;14.15;88.68
49065;BME280;34877;27.062;-82.386;2022-11-20T18:10:42;102108.75;;;14.17;88.16
49065;BME280;34877;27.062;-82.386;2022-11-20T18:20:53;102090.56;;;14.50;89.74
49065;BME280;34877;27.062;-82.386;2022-11-20T18:30:57;102106.47;;;14.64;89.09
49065;BME280;34877;27.062;-82.386;2022-11-20T18:41:02;102101.99;;;14.28;89.05
49065;BME280;34877;27.062;-82.386;2022-11-20T18:51:08;102113.58;;;14.02;88.85
49065;BME280;34877;27.062;-82.386;2022-11-20T19:01:17;102129.38;;;14.58;88.33
49065;BME280;34877;27.062;-82.386;2022-11-20T19:11:22;102123.76;;;14.27;88.53
49065;BME280;34877;27.062;-82.386;2022-11-20T19:21:27;102107.27;;;14.09;88.84
49065;BME280;34877;27.062;-82.386;2022-11-20T19:31:33;102101.07;;;14.20;89.16
49065;BME280;34877;27.062;-82.386;2022-11-20T19:41:38;102087.11;;;13.87;89.02
49065;BME280;34877;27.062;-82.386;2022-11-20T19:51:46;102084.27;;;13.76;89.37
49065;BME280;34877;27.062;-82.386;2022-11-20T20:01:51;102095.08;;;13.71;89.59
49065;BME280;34877;27.062;-82.386;2022-11-20T20:11:58;102102.52;;;13.75;89.87
49065;BME280;34877;27.062;-82.386;2022-11-20T20:22:02;102082.71;;;13.76;89.56
49065;BME280;34877;27.062;-82.386;2022-11-20T20:32:07;102099.69;;;13.72;88.78
49065;BME280;34877;27.062;-82.386;2022-11-20T20:42:13;102122.85;;;13.61;88.87
49065;BME280;34877;27.062;-82.386;2022-11-20T20:52:17;102126.33;;;14.09;88.31
49065;BME280;34877;27.062;-82.386;2022-11-20T21:02:22;102128.82;;;13.65;89.67
49065;BME280;34877;27.062;-82.386;2022-11-20T21:12:27;102076.78;;;13.71;89.68
49065;BME280;34877;27.062;-82.386;2022-11-20T21:22:32;102074.05;;;13.10;93.10
49065;BME280;34877;27.062;-82.386;2022-11-20T21:32:37;102111.56;;;13.22;91.82
49065;BME280;34877;27.062;-82.386;2022-11-20T21:42:41;102127.61;;;13.13;92.33
49065;BME280;34877;27.062;-82.386;2022-11-20T21:52:48;102149.69;;;13.72;91.37
49065;BME280;34877;27.062;-82.386;2022-11-20T22:02:53;102157.77;;;13.42;92.15
